sensor_id;sensor_type;location;lat;lon;timestamp;temperature;humidity
80958;DHT22;70419;42.700;23.316;2023-09-08T00:01:25;21.50;54.40
80958;DHT22;70419;42.700;23.316;2023-09-08T00:03:50;21.50;54.60
80958;DHT22;70419;42.700;23.316;2023-09-08T00:06:16;21.40;55.10
80958;DHT22;70419;42.700;23.316;2023-09-08T00:08:41;21.30;55.40
80958;DHT22;70419;42.700;23.316;2023-09-08T00:11:08;21.30;56.00
80958;DHT22;70419;42.700;23.316;2023-09-08T00:13:34;21.10;56.50
80958;DHT22;70419;42.700;23.316;2023-09-08T00:15:59;21.10;56.60
80958;DHT22;70419;42.700;23.316;2023-09-08T00:18:25;21.00;57.10
80958;DHT22;70419;42.700;23.316;2023-09-08T00:20:51;21.00;57.00
80958;DHT22;70419;42.700;23.316;2023-09-08T00:23:16;21.00;56.60
80958;DHT22;70419;42.700;23.316;2023-09-08T00:25:42;21.00;57.00
80958;DHT22;70419;42.700;23.316;2023-09-08T00:28:08;20.80;57.40
80958;DHT22;70419;42.700;23.316;2023-09-08T00:30:33;20.60;57.90
80958;DHT22;70419;42.700;23.316;2023-09-08T00:32:59;20.50;58.00
80958;DHT22;70419;42.700;23.316;2023-09-08T00:35:25;20.60;56.80
80958;DHT22;70419;42.700;23.316;2023-09-08T00:37:50;20.60;56.30
80958;DHT22;70419;42.700;23.316;2023-09-08T00:40:16;20.60;56.60
80958;DHT22;70419;42.700;23.316;2023-09-08T00:42:42;20.60;55.60
80958;DHT22;70419;42.700;23.316;2023-09-08T00:45:08;20.60;55.80
80958;DHT22;70419;42.700;23.316;2023-09-08T00:47:34;20.60;54.50
80958;DHT22;70419;42.700;23.316;2023-09-08T00:50:02;20.70;53.20
80958;DHT22;70419;42.700;23.316;2023-09-08T00:52:28;20.60;52.70
80958;DHT22;70419;42.700;23.316;2023-09-08T00:54:58;20.60;52.50
80958;DHT22;70419;42.700;23.316;2023-09-08T00:57:27;20.60;52.70
80958;DHT22;70419;42.700;23.316;2023-09-08T00:59:53;20.60;53.10
80958;DHT22;70419;42.700;23.316;2023-09-08T01:02:20;20.50;53.50
80958;DHT22;70419;42.700;23.316;2023-09-08T01:04:46;20.60;53.00
80958;DHT22;70419;42.700;23.316;2023-09-08T01:07:12;20.60;54.10
80958;DHT22;70419;42.700;23.316;2023-09-08T01:09:39;20.50;53.70
80958;DHT22;70419;42.700;23.316;2023-09-08T01:12:06;20.50;53.90
80958;DHT22;70419;42.700;23.316;2023-09-08T01:14:32;20.50;54.50
80958;DHT22;70419;42.700;23.316;2023-09-08T01:16:58;20.60;55.40
80958;DHT22;70419;42.700;23.316;2023-09-08T01:19:23;20.60;55.80
80958;DHT22;70419;42.700;23.316;2023-09-08T01:27:37;20.60;55.80
80958;DHT22;70419;42.700;23.316;2023-09-08T01:30:05;20.60;55.40
80958;DHT22;70419;42.700;23.316;2023-09-08T01:32:32;20.60;56.30
80958;DHT22;70419;42.700;23.316;2023-09-08T01:34:59;20.60;55.20
80958;DHT22;70419;42.700;23.316;2023-09-08T01:37:26;20.50;56.40
80958;DHT22;70419;42.700;23.316;2023-09-08T01:39:52;20.60;54.70
80958;DHT22;70419;42.700;23.316;2023-09-08T01:42:18;20.60;54.80
80958;DHT22;70419;42.700;23.316;2023-09-08T01:44:43;20.50;55.00
80958;DHT22;70419;42.700;23.316;2023-09-08T01:47:09;20.40;55.30
80958;DHT22;70419;42.700;23.316;2023-09-08T01:49:35;20.40;55.50
80958;DHT22;70419;42.700;23.316;2023-09-08T01:52:00;20.40;55.40
80958;DHT22;70419;42.700;23.316;2023-09-08T01:54:26;20.40;55.40
80958;DHT22;70419;42.700;23.316;2023-09-08T01:56:52;20.40;55.50
80958;DHT22;70419;42.700;23.316;2023-09-08T01:59:18;20.40;55.90
80958;DHT22;70419;42.700;23.316;2023-09-08T02:01:43;20.40;55.60
80958;DHT22;70419;42.700;23.316;2023-09-08T02:04:09;20.40;55.80
80958;DHT22;70419;42.700;23.316;2023-09-08T02:06:34;20.30;56.00
80958;DHT22;70419;42.700;23.316;2023-09-08T02:09:00;20.30;56.10
80958;DHT22;70419;42.700;23.316;2023-09-08T02:11:26;20.20;56.40
80958;DHT22;70419;42.700;23.316;2023-09-08T02:13:52;20.20;56.70
80958;DHT22;70419;42.700;23.316;2023-09-08T02:16:18;20.20;56.80
80958;DHT22;70419;42.700;23.316;2023-09-08T02:18:44;20.20;56.90
80958;DHT22;70419;42.700;23.316;2023-09-08T02:21:10;20.20;57.00
80958;DHT22;70419;42.700;23.316;2023-09-08T02:23:36;20.10;57.20
80958;DHT22;70419;42.700;23.316;2023-09-08T02:26:02;20.10;57.20
80958;DHT22;70419;42.700;23.316;2023-09-08T02:28:28;20.00;57.80
80958;DHT22;70419;42.700;23.316;2023-09-08T02:30:54;20.00;58.30
80958;DHT22;70419;42.700;23.316;2023-09-08T02:33:20;19.80;59.30
80958;DHT22;70419;42.700;23.316;2023-09-08T02:35:46;19.90;58.40
80958;DHT22;70419;42.700;23.316;2023-09-08T02:38:11;19.80;58.50
80958;DHT22;70419;42.700;23.316;2023-09-08T02:40:37;19.80;58.70
80958;DHT22;70419;42.700;23.316;2023-09-08T02:43:03;19.80;58.90
80958;DHT22;70419;42.700;23.316;2023-09-08T02:45:30;19.80;59.20
80958;DHT22;70419;42.700;23.316;2023-09-08T02:47:55;19.80;59.20
80958;DHT22;70419;42.700;23.316;2023-09-08T02:50:21;19.80;59.20
80958;DHT22;70419;42.700;23.316;2023-09-08T02:52:47;19.70;59.50
80958;DHT22;70419;42.700;23.316;2023-09-08T02:55:13;19.70;59.50
80958;DHT22;70419;42.700;23.316;2023-09-08T02:57:39;19.70;59.90
80958;DHT22;70419;42.700;23.316;2023-09-08T03:00:06;19.60;60.10
80958;DHT22;70419;42.700;23.316;2023-09-08T03:02:33;19.50;60.60
80958;DHT22;70419;42.700;23.316;2023-09-08T03:04:59;19.50;60.70
80958;DHT22;70419;42.700;23.316;2023-09-08T03:07:26;19.60;60.90
80958;DHT22;70419;42.700;23.316;2023-09-08T03:09:52;19.40;61.20
80958;DHT22;70419;42.700;23.316;2023-09-08T03:12:18;19.30;61.30
80958;DHT22;70419;42.700;23.316;2023-09-08T03:14:43;19.30;62.10
80958;DHT22;70419;42.700;23.316;2023-09-08T03:17:10;19.10;62.50
80958;DHT22;70419;42.700;23.316;2023-09-08T03:19:36;19.10;62.70
80958;DHT22;70419;42.700;23.316;2023-09-08T03:22:02;19.00;63.00
80958;DHT22;70419;42.700;23.316;2023-09-08T03:24:28;19.00;63.20
80958;DHT22;70419;42.700;23.316;2023-09-08T03:26:53;19.00;63.10
80958;DHT22;70419;42.700;23.316;2023-09-08T03:29:19;19.00;63.30
80958;DHT22;70419;42.700;23.316;2023-09-08T03:31:45;18.90;63.40
80958;DHT22;70419;42.700;23.316;2023-09-08T03:34:13;18.90;63.60
80958;DHT22;70419;42.700;23.316;2023-09-08T03:36:39;18.90;63.80
80958;DHT22;70419;42.700;23.316;2023-09-08T03:39:05;18.80;63.90
80958;DHT22;70419;42.700;23.316;2023-09-08T03:41:31;18.80;64.00
80958;DHT22;70419;42.700;23.316;2023-09-08T03:43:56;18.80;64.10
80958;DHT22;70419;42.700;23.316;2023-09-08T03:46:22;18.70;64.20
80958;DHT22;70419;42.700;23.316;2023-09-08T03:48:50;18.70;65.00
80958;DHT22;70419;42.700;23.316;2023-09-08T03:51:15;18.60;65.20
80958;DHT22;70419;42.700;23.316;2023-09-08T03:53:41;18.60;65.20
80958;DHT22;70419;42.700;23.316;2023-09-08T03:56:07;18.60;65.10
80958;DHT22;70419;42.700;23.316;2023-09-08T03:58:33;18.60;65.10
80958;DHT22;70419;42.700;23.316;2023-09-08T04:00:59;18.50;65.30
80958;DHT22;70419;42.700;23.316;2023-09-08T04:03:24;18.50;65.50
80958;DHT22;70419;42.700;23.316;2023-09-08T04:05:50;18.50;65.50
80958;DHT22;70419;42.700;23.316;2023-09-08T04:08:16;18.50;65.70
80958;DHT22;70419;42.700;23.316;2023-09-08T04:10:41;18.50;66.00
80958;DHT22;70419;42.700;23.316;2023-09-08T04:13:07;18.50;65.90
80958;DHT22;70419;42.700;23.316;2023-09-08T04:15:33;18.50;66.50
80958;DHT22;70419;42.700;23.316;2023-09-08T04:17:58;18.50;66.20
80958;DHT22;70419;42.700;23.316;2023-09-08T04:20:25;18.50;66.10
80958;DHT22;70419;42.700;23.316;2023-09-08T04:22:50;18.50;66.70
80958;DHT22;70419;42.700;23.316;2023-09-08T04:25:16;18.40;67.20
80958;DHT22;70419;42.700;23.316;2023-09-08T04:27:43;18.20;67.80
80958;DHT22;70419;42.700;23.316;2023-09-08T04:30:10;18.20;68.00
80958;DHT22;70419;42.700;23.316;2023-09-08T04:32:36;18.30;67.40
80958;DHT22;70419;42.700;23.316;2023-09-08T04:35:03;18.40;67.10
80958;DHT22;70419;42.700;23.316;2023-09-08T04:37:29;18.50;66.80
80958;DHT22;70419;42.700;23.316;2023-09-08T04:39:56;18.70;66.40
80958;DHT22;70419;42.700;23.316;2023-09-08T04:42:22;18.70;66.00
80958;DHT22;70419;42.700;23.316;2023-09-08T04:44:48;18.70;66.00
80958;DHT22;70419;42.700;23.316;2023-09-08T04:47:14;18.80;65.90
80958;DHT22;70419;42.700;23.316;2023-09-08T04:49:40;18.80;65.50
80958;DHT22;70419;42.700;23.316;2023-09-08T04:52:06;19.00;65.10
80958;DHT22;70419;42.700;23.316;2023-09-08T04:54:31;19.00;65.00
80958;DHT22;70419;42.700;23.316;2023-09-08T04:56:58;19.10;64.60
80958;DHT22;70419;42.700;23.316;2023-09-08T04:59:24;19.10;64.40
80958;DHT22;70419;42.700;23.316;2023-09-08T05:01:50;19.30;64.40
80958;DHT22;70419;42.700;23.316;2023-09-08T05:04:17;19.30;64.30
80958;DHT22;70419;42.700;23.316;2023-09-08T05:06:43;19.40;63.80
80958;DHT22;70419;42.700;23.316;2023-09-08T05:09:09;19.50;63.30
80958;DHT22;70419;42.700;23.316;2023-09-08T05:11:37;19.60;63.10
80958;DHT22;70419;42.700;23.316;2023-09-08T05:14:03;19.70;62.80
80958;DHT22;70419;42.700;23.316;2023-09-08T05:16:29;19.80;62.20
80958;DHT22;70419;42.700;23.316;2023-09-08T05:19:14;19.90;62.10
80958;DHT22;70419;42.700;23.316;2023-09-08T05:21:41;20.00;61.60
80958;DHT22;70419;42.700;23.316;2023-09-08T05:24:09;20.10;61.40
80958;DHT22;70419;42.700;23.316;2023-09-08T05:26:37;20.30;61.10
80958;DHT22;70419;42.700;23.316;2023-09-08T05:29:04;20.30;60.50
80958;DHT22;70419;42.700;23.316;2023-09-08T05:31:31;20.50;59.30
80958;DHT22;70419;42.700;23.316;2023-09-08T05:33:56;20.60;59.10
80958;DHT22;70419;42.700;23.316;2023-09-08T05:36:22;20.70;58.60
80958;DHT22;70419;42.700;23.316;2023-09-08T05:38:48;20.80;57.50
80958;DHT22;70419;42.700;23.316;2023-09-08T05:41:14;21.00;56.50
80958;DHT22;70419;42.700;23.316;2023-09-08T05:43:39;21.10;56.30
80958;DHT22;70419;42.700;23.316;2023-09-08T05:46:05;21.20;55.50
80958;DHT22;70419;42.700;23.316;2023-09-08T05:48:32;22.00;53.40
80958;DHT22;70419;42.700;23.316;2023-09-08T05:50:57;22.90;51.40
80958;DHT22;70419;42.700;23.316;2023-09-08T05:53:24;23.20;49.70
80958;DHT22;70419;42.700;23.316;2023-09-08T05:55:50;23.40;48.80
80958;DHT22;70419;42.700;23.316;2023-09-08T05:58:16;23.60;48.10
80958;DHT22;70419;42.700;23.316;2023-09-08T06:00:42;23.50;48.00
80958;DHT22;70419;42.700;23.316;2023-09-08T06:03:08;23.40;47.90
80958;DHT22;70419;42.700;23.316;2023-09-08T06:05:34;23.20;47.90
80958;DHT22;70419;42.700;23.316;2023-09-08T06:08:00;23.10;47.80
80958;DHT22;70419;42.700;23.316;2023-09-08T06:10:26;22.80;48.40
80958;DHT22;70419;42.700;23.316;2023-09-08T06:12:54;23.30;45.20
80958;DHT22;70419;42.700;23.316;2023-09-08T06:15:19;23.80;43.90
80958;DHT22;70419;42.700;23.316;2023-09-08T06:17:45;24.30;42.70
80958;DHT22;70419;42.700;23.316;2023-09-08T06:20:12;24.60;41.90
80958;DHT22;70419;42.700;23.316;2023-09-08T06:22:38;24.70;41.50
80958;DHT22;70419;42.700;23.316;2023-09-08T06:25:05;24.50;41.30
80958;DHT22;70419;42.700;23.316;2023-09-08T06:27:31;24.50;41.90
80958;DHT22;70419;42.700;23.316;2023-09-08T06:29:57;24.70;40.80
80958;DHT22;70419;42.700;23.316;2023-09-08T06:32:23;24.90;41.30
80958;DHT22;70419;42.700;23.316;2023-09-08T06:34:54;24.50;43.20
80958;DHT22;70419;42.700;23.316;2023-09-08T06:37:22;24.80;42.50
80958;DHT22;70419;42.700;23.316;2023-09-08T06:39:48;25.10;42.30
80958;DHT22;70419;42.700;23.316;2023-09-08T06:42:14;25.70;38.50
80958;DHT22;70419;42.700;23.316;2023-09-08T06:44:40;26.30;36.20
80958;DHT22;70419;42.700;23.316;2023-09-08T06:47:06;26.60;36.10
80958;DHT22;70419;42.700;23.316;2023-09-08T06:49:33;27.20;34.90
80958;DHT22;70419;42.700;23.316;2023-09-08T06:51:59;27.20;35.40
80958;DHT22;70419;42.700;23.316;2023-09-08T06:54:25;27.40;34.80
80958;DHT22;70419;42.700;23.316;2023-09-08T06:56:51;27.40;34.30
80958;DHT22;70419;42.700;23.316;2023-09-08T06:59:18;27.70;33.70
80958;DHT22;70419;42.700;23.316;2023-09-08T07:01:43;27.30;35.20
80958;DHT22;70419;42.700;23.316;2023-09-08T07:04:09;27.40;33.20
80958;DHT22;70419;42.700;23.316;2023-09-08T07:06:36;27.70;32.30
80958;DHT22;70419;42.700;23.316;2023-09-08T07:09:04;27.90;32.40
80958;DHT22;70419;42.700;23.316;2023-09-08T07:11:30;28.00;32.60
80958;DHT22;70419;42.700;23.316;2023-09-08T07:13:56;27.80;32.30
80958;DHT22;70419;42.700;23.316;2023-09-08T07:16:22;28.30;31.70
80958;DHT22;70419;42.700;23.316;2023-09-08T07:18:47;29.50;30.00
80958;DHT22;70419;42.700;23.316;2023-09-08T07:21:13;29.70;28.30
80958;DHT22;70419;42.700;23.316;2023-09-08T07:23:39;29.90;28.10
80958;DHT22;70419;42.700;23.316;2023-09-08T07:26:05;29.60;28.20
80958;DHT22;70419;42.700;23.316;2023-09-08T07:28:31;29.20;28.70
80958;DHT22;70419;42.700;23.316;2023-09-08T07:31:04;30.10;27.80
80958;DHT22;70419;42.700;23.316;2023-09-08T07:33:30;30.80;27.10
80958;DHT22;70419;42.700;23.316;2023-09-08T07:35:56;30.80;26.30
80958;DHT22;70419;42.700;23.316;2023-09-08T07:38:22;31.00;27.10
80958;DHT22;70419;42.700;23.316;2023-09-08T07:40:48;31.30;26.30
80958;DHT22;70419;42.700;23.316;2023-09-08T07:43:14;31.70;26.10
80958;DHT22;70419;42.700;23.316;2023-09-08T07:45:40;31.60;25.60
80958;DHT22;70419;42.700;23.316;2023-09-08T07:48:06;31.60;26.10
80958;DHT22;70419;42.700;23.316;2023-09-08T07:50:32;31.90;25.40
80958;DHT22;70419;42.700;23.316;2023-09-08T07:53:05;31.40;25.30
80958;DHT22;70419;42.700;23.316;2023-09-08T07:55:30;30.20;26.70
80958;DHT22;70419;42.700;23.316;2023-09-08T07:57:57;30.40;26.80
80958;DHT22;70419;42.700;23.316;2023-09-08T08:00:23;31.90;25.60
80958;DHT22;70419;42.700;23.316;2023-09-08T08:02:51;32.60;24.40
80958;DHT22;70419;42.700;23.316;2023-09-08T08:05:18;32.90;24.50
80958;DHT22;70419;42.700;23.316;2023-09-08T08:07:47;33.20;23.80
80958;DHT22;70419;42.700;23.316;2023-09-08T08:10:13;34.10;23.00
80958;DHT22;70419;42.700;23.316;2023-09-08T08:12:39;34.10;22.90
80958;DHT22;70419;42.700;23.316;2023-09-08T08:15:06;34.40;23.50
80958;DHT22;70419;42.700;23.316;2023-09-08T08:17:32;34.40;22.60
80958;DHT22;70419;42.700;23.316;2023-09-08T08:19:58;34.20;23.30
80958;DHT22;70419;42.700;23.316;2023-09-08T08:22:27;34.60;22.60
80958;DHT22;70419;42.700;23.316;2023-09-08T08:24:56;34.30;22.80
80958;DHT22;70419;42.700;23.316;2023-09-08T08:27:21;34.00;22.60
80958;DHT22;70419;42.700;23.316;2023-09-08T08:29:47;32.10;24.80
80958;DHT22;70419;42.700;23.316;2023-09-08T08:32:13;31.20;25.80
80958;DHT22;70419;42.700;23.316;2023-09-08T08:34:38;30.90;27.10
80958;DHT22;70419;42.700;23.316;2023-09-08T08:37:08;30.80;26.20
80958;DHT22;70419;42.700;23.316;2023-09-08T08:39:42;30.80;27.00
80958;DHT22;70419;42.700;23.316;2023-09-08T08:42:09;31.10;25.90
80958;DHT22;70419;42.700;23.316;2023-09-08T08:44:38;30.60;26.30
80958;DHT22;70419;42.700;23.316;2023-09-08T08:47:07;29.80;27.10
80958;DHT22;70419;42.700;23.316;2023-09-08T08:49:34;29.30;27.50
80958;DHT22;70419;42.700;23.316;2023-09-08T08:52:01;28.90;28.70
80958;DHT22;70419;42.700;23.316;2023-09-08T08:54:38;28.80;29.50
80958;DHT22;70419;42.700;23.316;2023-09-08T08:57:04;29.00;28.20
80958;DHT22;70419;42.700;23.316;2023-09-08T08:59:30;29.50;27.40
80958;DHT22;70419;42.700;23.316;2023-09-08T09:01:58;30.00;26.80
80958;DHT22;70419;42.700;23.316;2023-09-08T09:04:26;30.50;26.40
80958;DHT22;70419;42.700;23.316;2023-09-08T09:06:56;31.00;25.60
80958;DHT22;70419;42.700;23.316;2023-09-08T09:09:23;31.20;25.40
80958;DHT22;70419;42.700;23.316;2023-09-08T09:11:50;30.80;25.30
80958;DHT22;70419;42.700;23.316;2023-09-08T09:14:15;29.50;26.60
80958;DHT22;70419;42.700;23.316;2023-09-08T09:16:43;29.20;27.30
80958;DHT22;70419;42.700;23.316;2023-09-08T09:19:21;29.30;27.30
80958;DHT22;70419;42.700;23.316;2023-09-08T09:21:52;28.70;27.80
80958;DHT22;70419;42.700;23.316;2023-09-08T09:26:56;28.00;28.60
80958;DHT22;70419;42.700;23.316;2023-09-08T09:29:22;28.10;28.50
80958;DHT22;70419;42.700;23.316;2023-09-08T09:32:05;28.50;28.20
80958;DHT22;70419;42.700;23.316;2023-09-08T09:34:35;28.30;27.80
80958;DHT22;70419;42.700;23.316;2023-09-08T09:37:11;28.20;28.70
80958;DHT22;70419;42.700;23.316;2023-09-08T09:39:37;28.40;27.90
80958;DHT22;70419;42.700;23.316;2023-09-08T09:42:03;28.70;28.20
80958;DHT22;70419;42.700;23.316;2023-09-08T09:44:30;28.70;28.00
80958;DHT22;70419;42.700;23.316;2023-09-08T09:46:56;29.00;27.90
80958;DHT22;70419;42.700;23.316;2023-09-08T09:49:21;29.40;27.40
80958;DHT22;70419;42.700;23.316;2023-09-08T09:51:50;30.00;27.00
80958;DHT22;70419;42.700;23.316;2023-09-08T09:54:18;30.90;26.20
80958;DHT22;70419;42.700;23.316;2023-09-08T09:56:45;32.30;25.00
80958;DHT22;70419;42.700;23.316;2023-09-08T09:59:13;33.50;24.00
80958;DHT22;70419;42.700;23.316;2023-09-08T10:01:40;33.70;23.20
80958;DHT22;70419;42.700;23.316;2023-09-08T10:04:07;33.60;23.40
80958;DHT22;70419;42.700;23.316;2023-09-08T10:06:39;33.20;23.70
80958;DHT22;70419;42.700;23.316;2023-09-08T10:09:05;33.10;23.90
80958;DHT22;70419;42.700;23.316;2023-09-08T10:11:49;33.90;23.50
80958;DHT22;70419;42.700;23.316;2023-09-08T10:14:15;35.00;22.70
80958;DHT22;70419;42.700;23.316;2023-09-08T10:16:44;35.20;22.30
80958;DHT22;70419;42.700;23.316;2023-09-08T10:19:11;34.60;22.50
80958;DHT22;70419;42.700;23.316;2023-09-08T10:21:42;33.90;23.20
80958;DHT22;70419;42.700;23.316;2023-09-08T10:24:24;33.20;24.10
80958;DHT22;70419;42.700;23.316;2023-09-08T10:29:31;32.90;24.30
80958;DHT22;70419;42.700;23.316;2023-09-08T10:31:58;33.50;24.00
80958;DHT22;70419;42.700;23.316;2023-09-08T10:34:25;33.80;23.70
80958;DHT22;70419;42.700;23.316;2023-09-08T10:36:52;33.60;23.70
80958;DHT22;70419;42.700;23.316;2023-09-08T10:39:30;33.20;24.00
80958;DHT22;70419;42.700;23.316;2023-09-08T10:44:42;32.40;25.00
80958;DHT22;70419;42.700;23.316;2023-09-08T10:47:07;32.10;25.20
80958;DHT22;70419;42.700;23.316;2023-09-08T10:49:37;31.90;25.50
80958;DHT22;70419;42.700;23.316;2023-09-08T10:52:13;33.10;24.50
80958;DHT22;70419;42.700;23.316;2023-09-08T10:54:43;33.50;23.70
80958;DHT22;70419;42.700;23.316;2023-09-08T10:57:14;33.40;24.60
80958;DHT22;70419;42.700;23.316;2023-09-08T11:00:03;33.60;23.80
80958;DHT22;70419;42.700;23.316;2023-09-08T11:02:39;34.90;22.60
80958;DHT22;70419;42.700;23.316;2023-09-08T11:05:08;36.70;21.50
80958;DHT22;70419;42.700;23.316;2023-09-08T11:07:36;37.40;20.50
80958;DHT22;70419;42.700;23.316;2023-09-08T11:10:03;37.00;20.60
80958;DHT22;70419;42.700;23.316;2023-09-08T11:12:31;36.40;21.00
80958;DHT22;70419;42.700;23.316;2023-09-08T11:15:02;35.80;21.50
80958;DHT22;70419;42.700;23.316;2023-09-08T11:17:35;35.40;22.10
80958;DHT22;70419;42.700;23.316;2023-09-08T11:20:02;35.30;22.30
80958;DHT22;70419;42.700;23.316;2023-09-08T11:22:34;37.30;20.80
80958;DHT22;70419;42.700;23.316;2023-09-08T11:25:01;39.30;19.10
80958;DHT22;70419;42.700;23.316;2023-09-08T11:27:30;39.40;18.80
80958;DHT22;70419;42.700;23.316;2023-09-08T11:29:57;40.00;18.40
80958;DHT22;70419;42.700;23.316;2023-09-08T11:32:25;41.40;17.60
80958;DHT22;70419;42.700;23.316;2023-09-08T11:35:07;41.00;17.60
80958;DHT22;70419;42.700;23.316;2023-09-08T11:37:39;40.60;17.90
80958;DHT22;70419;42.700;23.316;2023-09-08T11:40:06;39.90;18.40
80958;DHT22;70419;42.700;23.316;2023-09-08T11:42:41;39.20;18.60
80958;DHT22;70419;42.700;23.316;2023-09-08T11:45:15;39.50;18.50
80958;DHT22;70419;42.700;23.316;2023-09-08T11:47:45;40.40;17.80
80958;DHT22;70419;42.700;23.316;2023-09-08T11:50:12;42.40;16.90
80958;DHT22;70419;42.700;23.316;2023-09-08T11:52:44;43.70;16.00
80958;DHT22;70419;42.700;23.316;2023-09-08T11:55:11;44.90;15.10
80958;DHT22;70419;42.700;23.316;2023-09-08T11:57:38;45.90;14.70
80958;DHT22;70419;42.700;23.316;2023-09-08T12:00:05;47.10;14.20
80958;DHT22;70419;42.700;23.316;2023-09-08T12:02:35;47.70;14.20
80958;DHT22;70419;42.700;23.316;2023-09-08T12:05:02;47.70;13.50
80958;DHT22;70419;42.700;23.316;2023-09-08T12:07:31;47.40;13.40
80958;DHT22;70419;42.700;23.316;2023-09-08T12:09:57;47.60;13.30
80958;DHT22;70419;42.700;23.316;2023-09-08T12:12:25;47.60;13.10
80958;DHT22;70419;42.700;23.316;2023-09-08T12:14:54;47.50;12.80
80958;DHT22;70419;42.700;23.316;2023-09-08T12:17:22;47.40;13.00
80958;DHT22;70419;42.700;23.316;2023-09-08T12:19:50;48.20;12.60
80958;DHT22;70419;42.700;23.316;2023-09-08T12:22:16;48.30;12.30
80958;DHT22;70419;42.700;23.316;2023-09-08T12:24:59;48.20;12.60
80958;DHT22;70419;42.700;23.316;2023-09-08T12:27:27;47.80;12.50
80958;DHT22;70419;42.700;23.316;2023-09-08T12:29:57;47.30;13.10
80958;DHT22;70419;42.700;23.316;2023-09-08T12:32:30;47.10;13.20
80958;DHT22;70419;42.700;23.316;2023-09-08T12:34:59;46.90;13.20
80958;DHT22;70419;42.700;23.316;2023-09-08T12:37:27;46.50;13.30
80958;DHT22;70419;42.700;23.316;2023-09-08T12:39:57;46.50;13.60
80958;DHT22;70419;42.700;23.316;2023-09-08T12:42:23;47.20;13.20
80958;DHT22;70419;42.700;23.316;2023-09-08T12:44:54;47.00;13.10
80958;DHT22;70419;42.700;23.316;2023-09-08T12:47:19;46.50;13.30
80958;DHT22;70419;42.700;23.316;2023-09-08T12:49:45;45.10;14.20
80958;DHT22;70419;42.700;23.316;2023-09-08T12:52:11;43.50;15.00
80958;DHT22;70419;42.700;23.316;2023-09-08T12:54:37;42.60;15.60
80958;DHT22;70419;42.700;23.316;2023-09-08T12:57:02;41.80;16.10
80958;DHT22;70419;42.700;23.316;2023-09-08T12:59:28;42.60;15.70
80958;DHT22;70419;42.700;23.316;2023-09-08T13:01:55;43.70;15.20
80958;DHT22;70419;42.700;23.316;2023-09-08T13:04:21;43.40;15.30
80958;DHT22;70419;42.700;23.316;2023-09-08T13:06:48;42.20;15.90
80958;DHT22;70419;42.700;23.316;2023-09-08T13:09:15;41.50;16.60
80958;DHT22;70419;42.700;23.316;2023-09-08T13:11:41;42.50;16.00
80958;DHT22;70419;42.700;23.316;2023-09-08T13:14:07;42.60;15.80
80958;DHT22;70419;42.700;23.316;2023-09-08T13:16:33;41.30;16.30
80958;DHT22;70419;42.700;23.316;2023-09-08T13:18:59;40.90;16.60
80958;DHT22;70419;42.700;23.316;2023-09-08T13:21:25;41.00;16.50
80958;DHT22;70419;42.700;23.316;2023-09-08T13:23:51;40.00;17.00
80958;DHT22;70419;42.700;23.316;2023-09-08T13:26:16;39.10;17.90
80958;DHT22;70419;42.700;23.316;2023-09-08T13:28:42;38.10;18.20
80958;DHT22;70419;42.700;23.316;2023-09-08T13:31:08;37.30;18.90
80958;DHT22;70419;42.700;23.316;2023-09-08T13:33:34;36.70;19.40
80958;DHT22;70419;42.700;23.316;2023-09-08T13:36:00;36.30;19.60
80958;DHT22;70419;42.700;23.316;2023-09-08T13:38:25;35.70;19.40
80958;DHT22;70419;42.700;23.316;2023-09-08T13:40:54;35.60;19.60
80958;DHT22;70419;42.700;23.316;2023-09-08T13:43:20;35.90;19.50
80958;DHT22;70419;42.700;23.316;2023-09-08T13:45:45;36.50;19.30
80958;DHT22;70419;42.700;23.316;2023-09-08T13:48:11;37.40;18.70
80958;DHT22;70419;42.700;23.316;2023-09-08T13:50:41;38.50;18.10
80958;DHT22;70419;42.700;23.316;2023-09-08T13:53:10;38.90;17.50
80958;DHT22;70419;42.700;23.316;2023-09-08T13:55:35;40.00;17.10
80958;DHT22;70419;42.700;23.316;2023-09-08T13:58:01;40.50;16.70
80958;DHT22;70419;42.700;23.316;2023-09-08T14:00:27;38.40;18.10
80958;DHT22;70419;42.700;23.316;2023-09-08T14:02:52;37.90;18.50
80958;DHT22;70419;42.700;23.316;2023-09-08T14:05:18;38.10;18.30
80958;DHT22;70419;42.700;23.316;2023-09-08T14:07:44;38.20;18.40
80958;DHT22;70419;42.700;23.316;2023-09-08T14:10:10;37.90;18.50
80958;DHT22;70419;42.700;23.316;2023-09-08T14:12:36;38.40;18.20
80958;DHT22;70419;42.700;23.316;2023-09-08T14:15:02;39.00;17.50
80958;DHT22;70419;42.700;23.316;2023-09-08T14:17:28;38.90;17.60
80958;DHT22;70419;42.700;23.316;2023-09-08T14:19:54;39.00;17.90
80958;DHT22;70419;42.700;23.316;2023-09-08T14:22:20;39.20;17.80
80958;DHT22;70419;42.700;23.316;2023-09-08T14:24:46;39.20;17.80
80958;DHT22;70419;42.700;23.316;2023-09-08T14:27:11;39.40;17.70
80958;DHT22;70419;42.700;23.316;2023-09-08T14:29:39;39.40;17.80
80958;DHT22;70419;42.700;23.316;2023-09-08T14:32:07;39.10;18.10
80958;DHT22;70419;42.700;23.316;2023-09-08T14:34:33;38.80;18.60
80958;DHT22;70419;42.700;23.316;2023-09-08T14:36:58;37.90;19.00
80958;DHT22;70419;42.700;23.316;2023-09-08T14:39:24;37.10;19.80
80958;DHT22;70419;42.700;23.316;2023-09-08T14:41:51;36.30;20.30
80958;DHT22;70419;42.700;23.316;2023-09-08T14:44:18;35.50;20.80
80958;DHT22;70419;42.700;23.316;2023-09-08T14:46:44;34.90;21.40
80958;DHT22;70419;42.700;23.316;2023-09-08T14:49:10;34.30;22.10
80958;DHT22;70419;42.700;23.316;2023-09-08T14:51:42;33.70;22.50
80958;DHT22;70419;42.700;23.316;2023-09-08T14:54:08;33.10;22.90
80958;DHT22;70419;42.700;23.316;2023-09-08T14:56:34;32.60;23.50
80958;DHT22;70419;42.700;23.316;2023-09-08T14:58:59;32.40;23.80
80958;DHT22;70419;42.700;23.316;2023-09-08T15:01:26;32.20;23.90
80958;DHT22;70419;42.700;23.316;2023-09-08T15:03:52;32.50;23.70
80958;DHT22;70419;42.700;23.316;2023-09-08T15:06:20;32.30;23.90
80958;DHT22;70419;42.700;23.316;2023-09-08T15:08:46;32.10;24.20
80958;DHT22;70419;42.700;23.316;2023-09-08T15:11:12;31.70;24.60
80958;DHT22;70419;42.700;23.316;2023-09-08T15:13:37;31.30;24.90
80958;DHT22;70419;42.700;23.316;2023-09-08T15:16:03;31.10;25.30
80958;DHT22;70419;42.700;23.316;2023-09-08T15:18:30;30.90;25.30
80958;DHT22;70419;42.700;23.316;2023-09-08T15:20:56;30.80;25.50
80958;DHT22;70419;42.700;23.316;2023-09-08T15:23:24;30.60;25.60
80958;DHT22;70419;42.700;23.316;2023-09-08T15:25:57;30.40;25.50
80958;DHT22;70419;42.700;23.316;2023-09-08T15:28:24;30.10;25.90